createdAt,value
2018-12-05T00:00:23.656Z,23.16
2018-12-05T00:00:59.225Z,23.10
2018-12-05T00:01:35.224Z,23.10
2018-12-05T00:02:10.998Z,23.08
2018-12-05T00:02:46.683Z,23.10
2018-12-05T00:03:22.337Z,23.11
2018-12-05T00:03:57.936Z,23.17
2018-12-05T00:04:34.434Z,23.19
2018-12-05T00:05:10.551Z,23.16
2018-12-05T00:05:46.876Z,23.19
2018-12-05T00:06:22.803Z,23.12
2018-12-05T00:06:58.861Z,23.17
2018-12-05T00:07:34.626Z,23.19
2018-12-05T00:08:10.533Z,23.16
2018-12-05T00:08:48.367Z,23.20
2018-12-05T00:09:24.472Z,23.21
2018-12-05T00:10:00.567Z,23.26
2018-12-05T00:10:36.414Z,23.30
2018-12-05T00:11:12.468Z,23.31
2018-12-05T00:11:48.266Z,23.31
2018-12-05T00:12:24.221Z,23.30
2018-12-05T00:12:59.893Z,23.35
2018-12-05T00:13:35.574Z,23.31
2018-12-05T00:14:11.678Z,23.26
2018-12-05T00:14:47.726Z,23.27
2018-12-05T00:15:23.634Z,23.25
2018-12-05T00:15:59.283Z,23.26
2018-12-05T00:16:34.851Z,23.26
2018-12-05T00:17:10.912Z,23.24
2018-12-05T00:17:47.065Z,23.28
2018-12-05T00:18:23.240Z,23.26
2018-12-05T00:18:59.058Z,23.25
2018-12-05T00:19:35.065Z,23.16
2018-12-05T00:20:11.145Z,23.28
2018-12-05T00:20:47.022Z,23.25
2018-12-05T00:21:23.316Z,23.22
2018-12-05T00:21:59.131Z,23.23
2018-12-05T00:22:34.990Z,23.02
2018-12-05T00:23:11.057Z,23.24
2018-12-05T00:23:46.873Z,23.22
2018-12-05T00:24:22.629Z,23.20
2018-12-05T00:24:58.223Z,23.16
2018-12-05T00:25:33.984Z,23.12
2018-12-05T00:26:10.136Z,23.10
2018-12-05T00:26:45.924Z,23.12
2018-12-05T00:27:21.943Z,23.11
2018-12-05T00:27:57.737Z,23.16
2018-12-05T00:28:33.553Z,23.16
2018-12-05T00:29:09.762Z,23.15
2018-12-05T00:29:45.875Z,23.17
2018-12-05T00:30:22.301Z,23.12
2018-12-05T00:30:58.441Z,23.11
2018-12-05T00:31:34.513Z,23.17
2018-12-05T00:32:11.235Z,23.17
2018-12-05T00:32:46.908Z,23.10
2018-12-05T00:33:22.666Z,23.11
2018-12-05T00:33:58.781Z,23.07
2018-12-05T00:34:34.509Z,23.11
2018-12-05T00:35:10.476Z,23.05
2018-12-05T00:35:46.488Z,23.11
2018-12-05T00:36:22.263Z,23.10
2018-12-05T00:36:58.141Z,23.16
2018-12-05T00:37:34.187Z,23.23
2018-12-05T00:38:09.848Z,23.16
2018-12-05T00:38:45.558Z,23.17
2018-12-05T00:39:21.473Z,23.11
2018-12-05T00:39:57.639Z,23.12
2018-12-05T00:40:33.651Z,23.06
2018-12-05T00:41:09.553Z,23.09
2018-12-05T00:41:45.563Z,23.03
2018-12-05T00:42:21.377Z,23.07
2018-12-05T00:42:57.129Z,22.97
2018-12-05T00:43:33.100Z,23.05
2018-12-05T00:44:09.116Z,23.10
2018-12-05T00:44:44.982Z,23.03
2018-12-05T00:45:20.793Z,23.12
2018-12-05T00:45:56.684Z,23.10
2018-12-05T00:46:32.623Z,23.02
2018-12-05T00:47:08.492Z,23.10
2018-12-05T00:47:44.474Z,23.10
2018-12-05T00:48:20.764Z,23.06
2018-12-05T00:48:56.939Z,23.03
2018-12-05T00:49:32.689Z,23.04
2018-12-05T00:50:08.720Z,23.10
2018-12-05T00:50:44.785Z,23.07
2018-12-05T00:51:20.429Z,23.07
2018-12-05T00:51:56.009Z,23.10
2018-12-05T00:52:31.816Z,23.05
2018-12-05T00:53:07.598Z,23.07
2018-12-05T00:53:43.438Z,23.05
2018-12-05T00:54:19.325Z,23.06
2018-12-05T00:54:55.314Z,22.99
2018-12-05T00:55:30.995Z,23.04
2018-12-05T00:56:06.759Z,23.07
2018-12-05T00:56:42.480Z,23.01
2018-12-05T00:57:18.400Z,23.05
2018-12-05T00:57:54.150Z,23.04
2018-12-05T00:58:30.236Z,23.10
2018-12-05T00:59:06.207Z,23.10
2018-12-05T00:59:42.028Z,23.12
2018-12-05T01:00:17.779Z,23.06
2018-12-05T01:00:53.594Z,23.08
2018-12-05T01:01:29.676Z,23.09
2018-12-05T01:02:05.849Z,23.05
2018-12-05T01:02:41.571Z,23.01
2018-12-05T01:03:17.217Z,23.00
2018-12-05T01:03:53.191Z,23.04
2018-12-05T01:04:28.969Z,23.04
2018-12-05T01:05:04.640Z,23.04
2018-12-05T01:05:40.529Z,23.08
2018-12-05T01:06:16.418Z,23.13
2018-12-05T01:06:52.463Z,23.12
2018-12-05T01:07:28.530Z,23.10
2018-12-05T01:08:04.264Z,23.17
2018-12-05T01:08:40.202Z,23.13
2018-12-05T01:09:15.995Z,23.03
2018-12-05T01:09:51.831Z,23.02
2018-12-05T01:10:27.671Z,23.03
2018-12-05T01:11:03.532Z,22.99
2018-12-05T01:11:39.675Z,22.93
2018-12-05T01:12:15.364Z,22.95
2018-12-05T01:12:50.890Z,22.99
2018-12-05T01:13:26.841Z,23.05
2018-12-05T01:14:02.565Z,23.04
2018-12-05T01:14:38.788Z,22.97
2018-12-05T01:15:14.867Z,22.97
2018-12-05T01:15:50.691Z,23.03
2018-12-05T01:16:26.501Z,23.01
2018-12-05T01:17:02.047Z,22.95
2018-12-05T01:17:37.821Z,22.95
2018-12-05T01:18:13.531Z,22.89
2018-12-05T01:18:49.375Z,22.88
2018-12-05T01:19:25.355Z,22.91
2018-12-05T01:20:01.155Z,22.88
2018-12-05T01:20:37.471Z,22.90
2018-12-05T01:21:13.309Z,22.88
2018-12-05T01:21:49.368Z,22.88
2018-12-05T01:22:25.121Z,22.86
2018-12-05T01:23:01.170Z,22.84
2018-12-05T01:23:36.992Z,22.85
2018-12-05T01:24:12.839Z,22.86
2018-12-05T01:24:48.731Z,22.82
2018-12-05T01:25:24.655Z,22.85
2018-12-05T01:26:00.381Z,22.86
2018-12-05T01:26:36.096Z,22.88
2018-12-05T01:27:11.775Z,22.87
2018-12-05T01:27:47.444Z,22.89
2018-12-05T01:28:23.189Z,22.99
2018-12-05T01:28:59.224Z,23.01
2018-12-05T01:29:35.081Z,23.04
2018-12-05T01:30:10.726Z,22.95
2018-12-05T01:30:46.641Z,22.94
2018-12-05T01:31:22.263Z,22.89
2018-12-05T01:31:57.905Z,22.93
2018-12-05T01:32:33.776Z,22.90
2018-12-05T01:33:09.623Z,22.95
2018-12-05T01:33:45.862Z,23.02
2018-12-05T01:34:21.424Z,23.05
2018-12-05T01:34:57.417Z,22.99
2018-12-05T01:35:33.285Z,22.94
2018-12-05T01:36:09.327Z,22.91
2018-12-05T01:36:45.103Z,22.89
2018-12-05T01:37:21.207Z,22.89
2018-12-05T01:37:57.011Z,22.87
2018-12-05T01:38:33.152Z,22.87
2018-12-05T01:39:09.911Z,22.89
2018-12-05T01:39:45.726Z,22.83
2018-12-05T01:40:21.438Z,22.78
2018-12-05T01:40:57.191Z,22.81
2018-12-05T01:41:33.332Z,22.81
2018-12-05T01:42:09.290Z,22.81
2018-12-05T01:42:45.097Z,22.87
2018-12-05T01:43:21.045Z,22.88
2018-12-05T01:43:56.759Z,22.88
2018-12-05T01:44:32.786Z,22.90
2018-12-05T01:45:08.682Z,22.95
2018-12-05T01:45:44.660Z,22.93
2018-12-05T01:46:20.552Z,22.93
2018-12-05T01:46:56.257Z,22.91
2018-12-05T01:47:32.281Z,22.80
2018-12-05T01:48:08.506Z,22.83
2018-12-05T01:48:44.156Z,22.86
2018-12-05T01:49:19.851Z,22.88
2018-12-05T01:49:55.543Z,22.89
2018-12-05T01:50:31.174Z,22.88
2018-12-05T01:51:06.844Z,22.84
2018-12-05T01:51:43.085Z,22.80
2018-12-05T01:52:18.659Z,22.83
2018-12-05T01:52:54.627Z,22.88
2018-12-05T01:53:30.471Z,22.85
2018-12-05T01:54:05.952Z,22.85
2018-12-05T01:54:42.129Z,22.84
2018-12-05T01:55:18.855Z,22.86
2018-12-05T01:55:55.063Z,22.83
2018-12-05T01:56:31.110Z,22.86
2018-12-05T01:57:06.958Z,22.85
2018-12-05T01:57:42.739Z,22.85
2018-12-05T01:58:18.754Z,22.89
2018-12-05T01:58:54.687Z,22.85
2018-12-05T01:59:30.877Z,22.88
2018-12-05T02:00:08.257Z,22.89
2018-12-05T02:00:44.306Z,22.94
2018-12-05T02:01:20.002Z,22.90
2018-12-05T02:01:56.151Z,22.89
2018-12-05T02:02:32.170Z,22.98
2018-12-05T02:03:07.995Z,22.92
2018-12-05T02:03:43.858Z,22.90
2018-12-05T02:04:20.101Z,22.86
2018-12-05T02:04:55.820Z,22.84
2018-12-05T02:05:31.486Z,22.84
2018-12-05T02:06:07.439Z,22.88
2018-12-05T02:06:43.294Z,22.90
2018-12-05T02:07:19.271Z,22.89
2018-12-05T02:07:54.890Z,22.87
2018-12-05T02:08:31.110Z,22.87
2018-12-05T02:09:09.905Z,22.93
2018-12-05T02:09:48.092Z,22.98
2018-12-05T02:10:23.932Z,22.93
2018-12-05T02:10:59.728Z,22.88
2018-12-05T02:11:35.710Z,22.92
2018-12-05T02:12:11.420Z,22.93
2018-12-05T02:12:47.132Z,22.99
2018-12-05T02:13:22.829Z,22.92
2018-12-05T02:13:58.616Z,22.82
2018-12-05T02:14:34.659Z,22.87
2018-12-05T02:15:10.587Z,22.84
2018-12-05T02:15:46.367Z,22.81
2018-12-05T02:16:22.403Z,22.84
2018-12-05T02:16:58.152Z,22.88
2018-12-05T02:17:34.075Z,22.89
2018-12-05T02:18:10.068Z,22.84
2018-12-05T02:18:46.120Z,22.81
2018-12-05T02:19:21.768Z,22.80
2018-12-05T02:19:57.453Z,22.77
2018-12-05T02:20:33.135Z,22.80
2018-12-05T02:21:09.173Z,22.85
2018-12-05T02:21:45.021Z,22.84
2018-12-05T02:22:21.000Z,22.84
2018-12-05T02:22:57.091Z,22.83
2018-12-05T02:23:32.952Z,22.82
2018-12-05T02:24:08.655Z,22.79
2018-12-05T02:24:44.930Z,22.90
2018-12-05T02:25:21.035Z,22.87
2018-12-05T02:25:56.836Z,22.80
2018-12-05T02:26:32.967Z,22.86
2018-12-05T02:27:09.186Z,22.83
2018-12-05T02:27:44.998Z,22.89
2018-12-05T02:28:21.058Z,22.88
2018-12-05T02:28:56.902Z,22.92
2018-12-05T02:29:37.359Z,22.89
2018-12-05T02:30:13.147Z,22.91
2018-12-05T02:30:48.767Z,22.92
2018-12-05T02:31:24.505Z,22.85
2018-12-05T02:32:00.129Z,22.85
2018-12-05T02:32:35.685Z,22.90
2018-12-05T02:33:11.533Z,22.86
2018-12-05T02:33:47.610Z,22.85
2018-12-05T02:34:23.461Z,22.89
2018-12-05T02:34:59.279Z,22.97
2018-12-05T02:35:35.279Z,22.94
2018-12-05T02:36:11.377Z,22.98
2018-12-05T02:36:47.127Z,22.99
2018-12-05T02:37:23.312Z,22.92
2018-12-05T02:37:59.194Z,22.88
2018-12-05T02:38:34.880Z,22.93
2018-12-05T02:39:11.729Z,22.85
2018-12-05T02:39:48.011Z,22.88
2018-12-05T02:40:23.849Z,22.88
2018-12-05T02:40:59.632Z,22.85
2018-12-05T02:41:35.753Z,22.90
2018-12-05T02:42:11.390Z,22.92
2018-12-05T02:42:47.112Z,22.94
2018-12-05T02:43:22.867Z,22.97
2018-12-05T02:43:58.734Z,22.91
2018-12-05T02:44:35.077Z,22.90
2018-12-05T02:45:10.967Z,22.90
2018-12-05T02:45:46.713Z,22.90
2018-12-05T02:46:22.511Z,22.89
2018-12-05T02:46:58.514Z,22.85
2018-12-05T02:47:34.580Z,22.87
2018-12-05T02:48:10.748Z,22.84
2018-12-05T02:48:46.787Z,22.88
2018-12-05T02:49:22.714Z,22.90
2018-12-05T02:49:58.461Z,22.90
2018-12-05T02:50:34.437Z,22.98
2018-12-05T02:51:10.054Z,22.91
2018-12-05T02:51:46.177Z,22.92
2018-12-05T02:52:22.376Z,22.90
2018-12-05T02:52:58.252Z,22.90
2018-12-05T02:53:34.307Z,22.88
2018-12-05T02:54:10.596Z,22.81
2018-12-05T02:54:46.523Z,22.91
2018-12-05T02:55:22.389Z,22.80
2018-12-05T02:55:58.498Z,22.91
2018-12-05T02:56:35.032Z,23.02
2018-12-05T02:57:11.221Z,23.00
2018-12-05T02:57:47.129Z,22.92
2018-12-05T02:58:23.395Z,22.93
2018-12-05T02:58:59.266Z,22.98
2018-12-05T02:59:35.299Z,22.87
2018-12-05T03:00:10.918Z,22.84
2018-12-05T03:00:46.861Z,22.79
2018-12-05T03:01:22.773Z,22.80
2018-12-05T03:01:58.770Z,22.86
2018-12-05T03:02:34.549Z,22.91
2018-12-05T03:03:10.192Z,22.94
2018-12-05T03:03:45.987Z,22.87
2018-12-05T03:04:22.075Z,22.86
2018-12-05T03:04:57.872Z,22.82
2018-12-05T03:05:33.871Z,22.79
2018-12-05T03:06:09.470Z,22.88
2018-12-05T03:06:45.631Z,22.87
2018-12-05T03:07:22.004Z,22.89
2018-12-05T03:07:57.820Z,22.94
2018-12-05T03:08:33.573Z,22.89
2018-12-05T03:09:10.712Z,22.93
2018-12-05T03:09:46.551Z,22.91
2018-12-05T03:10:22.529Z,22.96
2018-12-05T03:10:58.445Z,22.93
2018-12-05T03:11:34.075Z,22.92
2018-12-05T03:12:09.721Z,22.96
2018-12-05T03:12:45.604Z,22.90
2018-12-05T03:13:21.315Z,22.88
2018-12-05T03:13:57.007Z,22.87
2018-12-05T03:14:32.861Z,22.92
2018-12-05T03:15:08.589Z,22.90
2018-12-05T03:15:44.080Z,22.89
2018-12-05T03:16:20.114Z,22.93
2018-12-05T03:16:56.062Z,22.91
2018-12-05T03:17:31.753Z,22.98
2018-12-05T03:18:07.481Z,22.95
2018-12-05T03:18:43.419Z,22.95
2018-12-05T03:19:19.224Z,22.94
2018-12-05T03:19:55.181Z,22.99
2018-12-05T03:20:30.904Z,22.90
2018-12-05T03:21:06.804Z,22.93
2018-12-05T03:21:42.648Z,22.99
2018-12-05T03:22:18.870Z,22.97
2018-12-05T03:22:54.689Z,23.00
2018-12-05T03:23:30.511Z,22.99
2018-12-05T03:24:06.422Z,23.03
2018-12-05T03:24:42.070Z,23.13
2018-12-05T03:25:17.799Z,22.98
2018-12-05T03:25:53.420Z,22.89
2018-12-05T03:26:29.373Z,22.90
2018-12-05T03:27:05.078Z,22.85
2018-12-05T03:27:40.844Z,22.93
2018-12-05T03:28:16.498Z,22.86
2018-12-05T03:28:52.026Z,22.81
2018-12-05T03:29:27.693Z,22.78
2018-12-05T03:30:03.869Z,22.72
2018-12-05T03:30:39.795Z,22.77
2018-12-05T03:31:16.172Z,22.77
2018-12-05T03:31:51.949Z,22.76
2018-12-05T03:32:27.761Z,22.77
2018-12-05T03:33:03.490Z,22.78
2018-12-05T03:33:39.652Z,22.76
2018-12-05T03:34:15.493Z,22.76
2018-12-05T03:34:51.670Z,22.76
2018-12-05T03:35:31.882Z,22.85
2018-12-05T03:36:07.962Z,22.88
2018-12-05T03:36:43.725Z,22.81
2018-12-05T03:37:19.278Z,22.79
2018-12-05T03:37:55.055Z,22.76
2018-12-05T03:38:30.830Z,22.76
2018-12-05T03:39:09.000Z,22.86
2018-12-05T03:39:44.721Z,22.83
2018-12-05T03:40:20.440Z,22.80
2018-12-05T03:40:56.130Z,22.82
2018-12-05T03:41:32.020Z,22.81
2018-12-05T03:42:07.704Z,22.91
2018-12-05T03:42:43.675Z,22.82
2018-12-05T03:43:19.829Z,22.87
2018-12-05T03:43:56.761Z,22.84
2018-12-05T03:44:32.391Z,22.83
2018-12-05T03:45:08.302Z,22.83
2018-12-05T03:45:44.045Z,22.81
2018-12-05T03:46:20.090Z,22.77
2018-12-05T03:46:56.189Z,22.72
2018-12-05T03:47:31.958Z,22.72
2018-12-05T03:48:07.781Z,22.72
2018-12-05T03:48:43.518Z,22.72
2018-12-05T03:49:19.311Z,22.73
2018-12-05T03:50:00.036Z,22.72
2018-12-05T03:50:35.959Z,22.71
2018-12-05T03:51:11.725Z,22.73
2018-12-05T03:51:47.629Z,22.77
2018-12-05T03:52:23.313Z,22.73
2018-12-05T03:52:59.161Z,22.75
2018-12-05T03:53:34.733Z,22.81
2018-12-05T03:54:10.762Z,22.88
2018-12-05T03:54:46.608Z,22.85
2018-12-05T03:55:22.861Z,22.84
2018-12-05T03:55:59.794Z,22.85
2018-12-05T03:56:35.901Z,22.84
2018-12-05T03:57:11.943Z,22.80
2018-12-05T03:57:47.787Z,22.80
2018-12-05T03:58:23.586Z,22.81
2018-12-05T03:58:59.220Z,22.83
2018-12-05T03:59:34.776Z,22.76
2018-12-05T04:00:10.546Z,22.81
2018-12-05T04:00:46.459Z,22.77
2018-12-05T04:01:22.788Z,22.87
2018-12-05T04:01:58.873Z,22.88
2018-12-05T04:02:34.602Z,22.83
2018-12-05T04:03:10.359Z,22.84
2018-12-05T04:03:46.036Z,22.77
2018-12-05T04:04:21.874Z,22.73
2018-12-05T04:04:57.751Z,22.70
2018-12-05T04:05:33.532Z,22.67
2018-12-05T04:06:09.262Z,22.71
2018-12-05T04:06:44.915Z,22.68
2018-12-05T04:07:20.635Z,22.72
2018-12-05T04:07:56.553Z,22.73
2018-12-05T04:08:32.289Z,22.72
2018-12-05T04:09:09.331Z,22.71
2018-12-05T04:09:45.275Z,22.69
2018-12-05T04:10:21.417Z,22.70
2018-12-05T04:10:57.133Z,22.67
2018-12-05T04:11:33.076Z,22.63
2018-12-05T04:12:08.800Z,22.64
2018-12-05T04:12:44.983Z,22.63
2018-12-05T04:13:20.820Z,22.71
2018-12-05T04:13:56.541Z,22.65
2018-12-05T04:14:32.123Z,22.68
2018-12-05T04:15:08.374Z,22.69
2018-12-05T04:15:44.469Z,22.68
2018-12-05T04:16:20.251Z,22.66
2018-12-05T04:16:56.726Z,22.71
2018-12-05T04:17:32.464Z,22.74
2018-12-05T04:18:08.418Z,22.73
2018-12-05T04:18:44.356Z,22.69
2018-12-05T04:19:20.223Z,22.69
2018-12-05T04:19:55.955Z,22.66
2018-12-05T04:20:31.743Z,22.65
2018-12-05T04:21:07.606Z,22.64
2018-12-05T04:21:43.334Z,22.61
2018-12-05T04:22:19.111Z,22.62
2018-12-05T04:22:55.012Z,22.71
2018-12-05T04:23:31.203Z,22.72
2018-12-05T04:24:08.039Z,22.75
2018-12-05T04:24:43.664Z,22.76
2018-12-05T04:25:19.670Z,22.79
2018-12-05T04:25:55.612Z,22.69
2018-12-05T04:26:31.357Z,22.68
2018-12-05T04:27:06.999Z,22.69
2018-12-05T04:27:43.082Z,22.69
2018-12-05T04:28:19.124Z,22.75
2018-12-05T04:28:55.090Z,22.80
2018-12-05T04:29:31.042Z,22.78
2018-12-05T04:30:06.894Z,22.78
2018-12-05T04:30:42.690Z,22.72
2018-12-05T04:31:18.721Z,22.72
2018-12-05T04:31:54.340Z,22.78
2018-12-05T04:32:30.353Z,22.76
2018-12-05T04:33:06.431Z,22.74
2018-12-05T04:33:42.077Z,22.71
2018-12-05T04:34:17.544Z,22.74
2018-12-05T04:34:53.556Z,22.81
2018-12-05T04:35:29.481Z,22.93
2018-12-05T04:36:05.275Z,22.93
2018-12-05T04:36:41.016Z,22.81
2018-12-05T04:37:16.683Z,22.83
2018-12-05T04:37:52.756Z,22.78
2018-12-05T04:38:29.007Z,22.74
2018-12-05T04:39:04.850Z,22.73
2018-12-05T04:39:40.650Z,22.71
2018-12-05T04:40:16.346Z,22.69
2018-12-05T04:40:52.316Z,22.68
2018-12-05T04:41:28.034Z,22.67
2018-12-05T04:42:03.854Z,22.60
2018-12-05T04:42:39.695Z,22.62
2018-12-05T04:43:15.703Z,22.64
2018-12-05T04:43:51.544Z,22.65
2018-12-05T04:44:27.319Z,22.66
2018-12-05T04:45:03.426Z,22.67
2018-12-05T04:45:39.479Z,22.65
2018-12-05T04:46:15.492Z,22.61
2018-12-05T04:46:51.231Z,22.69
2018-12-05T04:47:26.913Z,22.65
2018-12-05T04:48:02.561Z,22.62
2018-12-05T04:48:38.639Z,22.64
2018-12-05T04:49:14.523Z,22.63
2018-12-05T04:49:50.443Z,22.68
2018-12-05T04:50:26.074Z,22.64
2018-12-05T04:51:02.066Z,22.69
2018-12-05T04:51:37.853Z,22.74
2018-12-05T04:52:14.023Z,22.87
2018-12-05T04:52:49.864Z,22.90
2018-12-05T04:53:25.548Z,22.90
2018-12-05T04:54:01.402Z,23.01
2018-12-05T04:54:37.205Z,23.03
2018-12-05T04:55:12.939Z,22.86
2018-12-05T04:55:48.706Z,22.72
2018-12-05T04:56:24.492Z,22.72
2018-12-05T04:57:00.309Z,22.72
2018-12-05T04:57:36.218Z,22.75
2018-12-05T04:58:12.099Z,22.72
2018-12-05T04:58:47.943Z,22.78
2018-12-05T04:59:23.894Z,22.78
2018-12-05T05:00:00.286Z,22.68
2018-12-05T05:00:36.997Z,22.70
2018-12-05T05:01:12.632Z,22.59
2018-12-05T05:01:48.641Z,22.64
2018-12-05T05:02:24.681Z,22.59
2018-12-05T05:03:00.256Z,22.69
2018-12-05T05:03:35.980Z,22.63
2018-12-05T05:04:11.757Z,22.61
2018-12-05T05:04:47.720Z,22.67
2018-12-05T05:05:23.400Z,22.69
2018-12-05T05:05:59.468Z,22.61
2018-12-05T05:06:41.458Z,22.65
2018-12-05T05:07:12.855Z,22.68
2018-12-05T05:07:48.655Z,22.63
2018-12-05T05:08:24.623Z,22.59
2018-12-05T05:09:00.482Z,22.58
2018-12-05T05:09:36.261Z,22.58
2018-12-05T05:10:14.262Z,22.63
2018-12-05T05:10:50.278Z,22.58
2018-12-05T05:11:26.767Z,22.60
2018-12-05T05:12:02.576Z,22.56
2018-12-05T05:12:38.518Z,22.57
2018-12-05T05:13:14.754Z,22.53
2018-12-05T05:13:50.575Z,22.53
2018-12-05T05:14:26.171Z,22.58
2018-12-05T05:15:01.985Z,22.71
2018-12-05T05:15:37.535Z,22.64
2018-12-05T05:16:13.438Z,22.60
2018-12-05T05:16:49.159Z,22.57
2018-12-05T05:17:24.853Z,22.58
2018-12-05T05:18:00.725Z,22.62
2018-12-05T05:18:36.380Z,22.59
2018-12-05T05:19:11.916Z,22.57
2018-12-05T05:19:47.523Z,22.54
2018-12-05T05:20:23.280Z,22.53
2018-12-05T05:20:58.889Z,22.51
2018-12-05T05:21:34.533Z,22.48
2018-12-05T05:22:10.217Z,22.47
2018-12-05T05:22:46.009Z,22.47
2018-12-05T05:23:21.748Z,22.43
2018-12-05T05:23:57.650Z,22.40
2018-12-05T05:24:33.413Z,22.43
2018-12-05T05:25:09.112Z,22.48
2018-12-05T05:25:45.023Z,22.49
2018-12-05T05:26:20.628Z,22.57
2018-12-05T05:26:56.565Z,22.60
2018-12-05T05:27:32.469Z,22.58
2018-12-05T05:28:08.389Z,22.59
2018-12-05T05:28:44.189Z,22.57
2018-12-05T05:29:19.986Z,22.74
2018-12-05T05:29:55.904Z,22.72
2018-12-05T05:30:31.327Z,22.69
2018-12-05T05:31:07.382Z,22.71
2018-12-05T05:31:43.121Z,22.70
2018-12-05T05:32:18.991Z,22.67
2018-12-05T05:32:54.801Z,22.64
2018-12-05T05:33:30.714Z,22.65
2018-12-05T05:34:06.527Z,22.60
2018-12-05T05:34:42.331Z,22.59
2018-12-05T05:35:18.056Z,22.75
2018-12-05T05:35:53.713Z,22.78
2018-12-05T05:36:29.717Z,22.79
2018-12-05T05:37:05.389Z,22.81
2018-12-05T05:37:41.050Z,22.85
2018-12-05T05:38:16.874Z,22.95
2018-12-05T05:38:53.112Z,22.99
2018-12-05T05:39:28.905Z,22.94
2018-12-05T05:40:05.416Z,22.74
2018-12-05T05:40:41.389Z,22.66
2018-12-05T05:41:17.016Z,22.72
2018-12-05T05:41:53.002Z,22.82
2018-12-05T05:42:29.089Z,22.84
2018-12-05T05:43:04.972Z,22.89
2018-12-05T05:43:40.736Z,22.78
2018-12-05T05:44:16.500Z,22.66
2018-12-05T05:44:52.492Z,22.64
2018-12-05T05:45:28.563Z,22.60
2018-12-05T05:46:04.161Z,22.56
2018-12-05T05:46:39.748Z,22.58
2018-12-05T05:47:15.654Z,22.64
2018-12-05T05:47:51.181Z,22.64
2018-12-05T05:48:27.229Z,22.58
2018-12-05T05:49:03.187Z,22.57
2018-12-05T05:49:39.020Z,22.53
2018-12-05T05:50:15.017Z,22.56
2018-12-05T05:50:51.073Z,22.57
2018-12-05T05:51:27.120Z,22.54
2018-12-05T05:52:02.996Z,22.54
2018-12-05T05:52:38.628Z,22.61
2018-12-05T05:53:14.192Z,22.57
2018-12-05T05:53:50.166Z,22.53
2018-12-05T05:54:26.124Z,22.59
2018-12-05T05:55:01.836Z,22.61
2018-12-05T05:55:37.834Z,22.57
2018-12-05T05:56:13.533Z,22.59
2018-12-05T05:56:49.476Z,22.58
2018-12-05T05:57:25.265Z,22.55
2018-12-05T05:58:01.610Z,22.56
2018-12-05T05:58:37.464Z,22.56
2018-12-05T05:59:13.510Z,22.58
2018-12-05T05:59:49.341Z,22.61
2018-12-05T06:00:25.015Z,22.60
2018-12-05T06:01:00.823Z,22.61
2018-12-05T06:01:36.583Z,22.63
2018-12-05T06:02:12.532Z,22.67
2018-12-05T06:02:48.246Z,22.61
2018-12-05T06:03:24.492Z,22.65
2018-12-05T06:04:00.303Z,22.66
2018-12-05T06:04:36.399Z,22.68
2018-12-05T06:05:12.291Z,22.70
2018-12-05T06:05:47.988Z,22.65
2018-12-05T06:06:23.916Z,22.84
2018-12-05T06:06:59.611Z,22.77
2018-12-05T06:07:35.334Z,22.90
2018-12-05T06:08:11.512Z,22.86
2018-12-05T06:08:47.141Z,22.85
2018-12-05T06:09:22.972Z,22.84
2018-12-05T06:09:58.567Z,22.78
2018-12-05T06:10:34.421Z,22.72
2018-12-05T06:11:10.352Z,22.66
2018-12-05T06:11:46.296Z,22.65
2018-12-05T06:12:21.969Z,22.75
2018-12-05T06:12:57.881Z,22.66
2018-12-05T06:13:34.197Z,22.45
2018-12-05T06:14:10.162Z,22.56
2018-12-05T06:14:46.410Z,22.61
2018-12-05T06:15:22.176Z,22.59
2018-12-05T06:15:57.688Z,22.53
2018-12-05T06:16:33.657Z,22.51
2018-12-05T06:17:09.229Z,22.57
2018-12-05T06:17:45.150Z,22.66
2018-12-05T06:18:20.862Z,22.73
2018-12-05T06:18:57.176Z,22.84
2018-12-05T06:19:32.903Z,22.89
2018-12-05T06:20:08.544Z,22.74
2018-12-05T06:20:44.074Z,22.67
2018-12-05T06:21:19.822Z,22.62
2018-12-05T06:21:55.721Z,22.53
2018-12-05T06:22:31.735Z,22.47
2018-12-05T06:23:07.641Z,22.51
2018-12-05T06:23:43.844Z,22.45
2018-12-05T06:24:19.797Z,22.50
2018-12-05T06:24:55.690Z,22.48
2018-12-05T06:25:31.379Z,22.44
2018-12-05T06:26:07.034Z,22.45
2018-12-05T06:26:42.686Z,22.45
2018-12-05T06:27:18.386Z,22.49
2018-12-05T06:27:54.024Z,22.45
2018-12-05T06:28:29.723Z,22.33
2018-12-05T06:29:05.915Z,22.34
2018-12-05T06:29:41.409Z,22.35
2018-12-05T06:30:17.571Z,22.57
2018-12-05T06:30:53.074Z,22.49
2018-12-05T06:31:29.034Z,22.51
2018-12-05T06:32:04.962Z,22.59
2018-12-05T06:32:40.894Z,22.63
2018-12-05T06:33:16.719Z,22.63
2018-12-05T06:33:52.534Z,22.71
2018-12-05T06:34:28.535Z,22.75
2018-12-05T06:35:04.416Z,22.59
2018-12-05T06:35:40.190Z,22.57
2018-12-05T06:36:15.914Z,22.60
2018-12-05T06:36:51.840Z,22.48
2018-12-05T06:37:27.449Z,22.49
2018-12-05T06:38:03.329Z,22.42
2018-12-05T06:38:39.047Z,22.35
2018-12-05T06:39:14.819Z,22.36
2018-12-05T06:39:50.561Z,22.24
2018-12-05T06:40:26.440Z,22.29
2018-12-05T06:41:02.171Z,22.33
2018-12-05T06:41:38.398Z,22.40
2018-12-05T06:42:14.395Z,22.29
2018-12-05T06:42:50.591Z,22.22
2018-12-05T06:43:26.587Z,22.26
2018-12-05T06:44:02.657Z,22.23
2018-12-05T06:44:38.674Z,22.23
2018-12-05T06:45:15.146Z,22.24
2018-12-05T06:45:50.884Z,22.27
2018-12-05T06:46:26.715Z,22.23
2018-12-05T06:47:06.282Z,22.17
2018-12-05T06:47:42.311Z,22.27
2018-12-05T06:48:18.633Z,22.34
2018-12-05T06:48:54.516Z,22.34
2018-12-05T06:49:30.846Z,22.32
2018-12-05T06:50:07.642Z,22.25
2018-12-05T06:50:43.760Z,22.26
2018-12-05T06:51:19.827Z,22.30
2018-12-05T06:51:55.897Z,22.19
2018-12-05T06:52:31.970Z,22.16
2018-12-05T06:53:07.891Z,22.25
2018-12-05T06:53:43.921Z,22.25
2018-12-05T06:54:20.096Z,22.26
2018-12-05T06:54:55.972Z,22.33
2018-12-05T06:55:38.952Z,22.23
2018-12-05T06:56:10.136Z,22.16
2018-12-05T06:56:46.592Z,22.17
2018-12-05T06:57:22.930Z,22.12
2018-12-05T06:57:58.782Z,22.13
2018-12-05T06:58:34.789Z,22.09
2018-12-05T06:59:11.027Z,22.09
2018-12-05T06:59:47.095Z,22.14
2018-12-05T07:00:23.215Z,22.16
2018-12-05T07:00:59.300Z,22.16
2018-12-05T07:01:35.399Z,22.17
2018-12-05T07:02:11.410Z,22.20
2018-12-05T07:02:47.842Z,22.20
2018-12-05T07:03:24.032Z,22.15
2018-12-05T07:04:00.011Z,22.12
2018-12-05T07:04:36.140Z,22.12
2018-12-05T07:05:12.208Z,22.15
2018-12-05T07:05:48.396Z,22.15
2018-12-05T07:06:24.492Z,22.14
2018-12-05T07:07:00.368Z,22.10
2018-12-05T07:07:36.382Z,22.08
2018-12-05T07:08:12.326Z,22.04
2018-12-05T07:08:48.652Z,22.07
2018-12-05T07:09:24.580Z,22.07
2018-12-05T07:10:00.671Z,22.01
2018-12-05T07:10:36.894Z,22.06
2018-12-05T07:11:13.394Z,22.11
2018-12-05T07:11:49.306Z,22.13
2018-12-05T07:12:25.252Z,22.03
2018-12-05T07:13:01.532Z,21.98
2018-12-05T07:13:37.592Z,22.07
2018-12-05T07:14:13.939Z,22.08
2018-12-05T07:14:50.848Z,22.12
2018-12-05T07:15:27.222Z,22.17
2018-12-05T07:16:03.030Z,22.18
2018-12-05T07:16:39.197Z,22.15
2018-12-05T07:17:15.140Z,22.13
2018-12-05T07:17:51.302Z,22.14
2018-12-05T07:18:27.337Z,22.14
2018-12-05T07:19:03.468Z,22.17
2018-12-05T07:19:39.478Z,22.15
2018-12-05T07:20:15.430Z,22.18
2018-12-05T07:20:51.360Z,22.17
2018-12-05T07:21:27.538Z,22.09
2018-12-05T07:22:03.517Z,22.11
2018-12-05T07:22:39.458Z,22.07
2018-12-05T07:23:15.405Z,22.13
2018-12-05T07:23:51.297Z,22.10
2018-12-05T07:24:27.206Z,22.12
2018-12-05T07:25:03.110Z,22.06
2018-12-05T07:25:39.221Z,21.96
2018-12-05T07:26:15.524Z,21.99
2018-12-05T07:26:51.572Z,21.96
2018-12-05T07:27:27.656Z,22.01
2018-12-05T07:28:03.580Z,21.99
2018-12-05T07:28:39.384Z,22.00
2018-12-05T07:29:15.711Z,22.12
2018-12-05T07:29:51.547Z,22.18
2018-12-05T07:30:29.609Z,22.21
2018-12-05T07:31:05.344Z,22.15
2018-12-05T07:31:41.428Z,22.08
2018-12-05T07:32:17.258Z,22.08
2018-12-05T07:32:53.189Z,22.02
2018-12-05T07:33:29.001Z,22.00
2018-12-05T07:34:04.715Z,22.00
2018-12-05T07:34:40.610Z,22.01
2018-12-05T07:35:16.644Z,22.06
2018-12-05T07:35:52.745Z,22.08
2018-12-05T07:36:28.902Z,21.96
2018-12-05T07:37:05.171Z,21.97
2018-12-05T07:37:40.934Z,21.95
2018-12-05T07:38:19.655Z,22.13
2018-12-05T07:38:54.150Z,22.06
2018-12-05T07:39:30.099Z,21.98
2018-12-05T07:40:06.023Z,22.03
2018-12-05T07:40:41.980Z,21.99
2018-12-05T07:41:17.661Z,21.91
2018-12-05T07:41:53.734Z,22.01
2018-12-05T07:42:29.827Z,21.97
2018-12-05T07:43:05.598Z,21.96